Time;durP1;ratioP1;P1;durP2;ratioP2;P2;SDS_P1;SDS_P2;PMS_P1;PMS_P2;Temp;Humidity;BMP_temperature;BMP_pressure;BME280_temperature;BME280_humidity;BME280_pressure;Samples;Min_cycle;Max_cycle;Signal;HPM_P1;HPM_P2
2022/01/25 00:10:40;;;;;;;15.73;6.37;;;;;;;-7.41;100.00;100462.25;1425388;100;21189;-71
2022/01/25 00:26:25;;;;;;;15.30;6.10;;;;;;;-7.48;100.00;100451.52;1498316;95;21126;-70
2022/01/25 00:31:37;;;;;;;17.13;6.60;;;;;;;-7.42;100.00;100459.20;1551943;91;21078;-70
2022/01/25 00:34:05;;;;;;;14.97;6.10;;;;;;;-7.40;100.00;100442.08;1552515;92;21055;-71
2022/01/25 00:36:32;;;;;;;14.00;6.03;;;;;;;-7.39;100.00;100450.38;1552482;92;21087;-71
2022/01/25 00:39:00;;;;;;;15.53;6.80;;;;;;;-7.41;100.00;100446.48;1552619;92;21074;-70
2022/01/25 00:41:27;;;;;;;17.10;6.77;;;;;;;-7.43;100.00;100444.36;1552495;92;21142;-70
2022/01/25 00:43:54;;;;;;;17.33;7.20;;;;;;;-7.41;100.00;100453.52;1552722;92;21090;-71
2022/01/25 00:46:22;;;;;;;16.00;6.73;;;;;;;-7.41;100.00;100444.33;1552653;92;21111;-70
2022/01/25 00:48:53;;;;;;;16.83;6.23;;;;;;;-7.40;100.00;100440.77;1536412;92;21068;-69
2022/01/25 00:53:56;;;;;;;20.57;8.27;;;;;;;-7.47;100.00;100442.29;1539833;93;21180;-71
2022/01/25 00:56:23;;;;;;;19.10;7.80;;;;;;;-7.49;100.00;100440.17;1539513;91;21548;-70
2022/01/25 00:58:49;;;;;;;17.50;7.57;;;;;;;-7.51;100.00;100445.89;1520713;93;21092;-70
2022/01/25 01:01:18;;;;;;;15.73;7.10;;;;;;;-7.50;100.00;100440.20;1554538;89;21148;-71
2022/01/25 01:03:45;;;;;;;18.20;7.37;;;;;;;-7.50;100.00;100444.15;1615190;89;21025;-71
2022/01/25 01:06:12;;;;;;;20.13;8.53;;;;;;;-7.49;100.00;100435.34;1614928;89;21135;-71
2022/01/25 01:08:40;;;;;;;15.23;6.63;;;;;;;-7.46;100.00;100440.05;1614495;89;21060;-71
2022/01/25 01:11:11;;;;;;;16.30;7.03;;;;;;;-7.43;100.00;100448.31;1614795;89;21676;-71
2022/01/25 01:30:12;;;;;;;17.03;6.90;;;;;;;-7.60;100.00;100444.86;1603730;88;21133;-70
2022/01/25 01:32:58;;;;;;;17.83;6.57;;;;;;;-7.61;100.00;100448.41;1603785;88;21077;-70
2022/01/25 01:43:04;;;;;;;16.80;6.87;;;;;;;-7.65;100.00;100450.70;1606727;89;21142;-71
2022/01/25 01:45:35;;;;;;;15.83;7.00;;;;;;;-7.68;100.00;100453.45;1581735;89;21074;-71
2022/01/25 01:48:02;;;;;;;18.00;7.20;;;;;;;-7.70;100.00;100452.61;1603665;89;21157;-70
2022/01/25 01:50:30;;;;;;;19.90;7.37;;;;;;;-7.72;100.00;100449.17;1612988;85;21000;-70
2022/01/25 01:52:56;;;;;;;19.80;7.40;;;;;;;-7.75;100.00;100444.88;1662711;85;21537;-70
2022/01/25 01:55:24;;;;;;;19.60;7.30;;;;;;;-7.77;100.00;100440.14;1652317;87;21075;-69
2022/01/25 01:57:52;;;;;;;16.40;6.73;;;;;;;-7.79;100.00;100452.45;1641333;86;21051;-69
2022/01/25 02:00:21;;;;;;;18.40;7.50;;;;;;;-7.80;100.00;100458.59;1641559;87;21074;-70
2022/01/25 02:02:48;;;;;;;17.10;7.00;;;;;;;-7.80;100.00;100457.28;1641785;87;21031;-71
2022/01/25 02:05:15;;;;;;;18.13;7.60;;;;;;;-7.79;100.00;100466.01;1641960;87;21515;-70
2022/01/25 02:07:44;;;;;;;17.97;7.77;;;;;;;-7.78;100.00;100459.87;1641436;87;21078;-71
2022/01/25 02:10:11;;;;;;;20.60;8.23;;;;;;;-7.77;100.00;100463.77;1641576;86;21077;-69
2022/01/25 02:12:40;;;;;;;19.33;8.03;;;;;;;-7.75;100.00;100459.33;1641252;87;21094;-71
2022/01/25 02:15:09;;;;;;;18.33;7.77;;;;;;;-7.72;100.00;100467.12;1641586;87;21066;-71
2022/01/25 02:23:00;;;;;;;26.63;11.20;;;;;;;-7.70;100.00;100462.68;1638402;86;21545;-71
2022/01/25 02:25:27;;;;;;;21.63;9.23;;;;;;;-7.74;100.00;100464.97;1671078;84;21041;-71
2022/01/25 02:27:54;;;;;;;20.47;7.67;;;;;;;-7.76;100.00;100470.72;1705102;84;21507;-70
2022/01/25 02:30:21;;;;;;;21.40;8.83;;;;;;;-7.77;100.00;100470.76;1699414;84;21046;-70
2022/01/25 02:32:49;;;;;;;24.33;10.33;;;;;;;-7.79;100.00;100474.77;1714806;83;21041;-71
2022/01/25 02:35:16;;;;;;;27.07;12.87;;;;;;;-7.80;100.00;100470.41;1732204;83;21068;-71
2022/01/25 02:37:43;;;;;;;22.93;11.23;;;;;;;-7.78;100.00;100477.78;1707676;83;21000;-71
2022/01/25 02:40:09;;;;;;;19.00;8.33;;;;;;;-7.73;100.00;100474.58;1707638;83;21025;-71
2022/01/25 02:42:36;;;;;;;18.10;7.57;;;;;;;-7.69;100.00;100470.95;1730669;83;21068;-70
2022/01/25 02:45:04;;;;;;;16.77;7.13;;;;;;;-7.70;100.00;100473.18;1731954;83;21553;-70
2022/01/25 02:50:17;;;;;;;19.93;8.23;;;;;;;-7.75;100.00;100467.66;1730580;83;21068;-71
2022/01/25 02:52:44;;;;;;;23.27;9.20;;;;;;;-7.79;100.00;100466.01;1732131;83;21520;-70
2022/01/25 02:55:11;;;;;;;21.10;8.10;;;;;;;-7.80;100.00;100468.25;1726326;83;21048;-70
2022/01/25 02:57:39;;;;;;;21.30;8.50;;;;;;;-7.83;100.00;100459.53;1671696;84;21049;-70
2022/01/25 03:00:09;;;;;;;21.20;7.87;;;;;;;-7.83;100.00;100456.05;1671605;84;20994;-71
2022/01/25 03:02:36;;;;;;;19.57;7.67;;;;;;;-7.88;100.00;100460.14;1671771;84;21009;-71
2022/01/25 03:05:04;;;;;;;18.43;7.07;;;;;;;-7.89;100.00;100464.12;1697358;84;21474;-71
2022/01/25 03:07:32;;;;;;;18.97;8.20;;;;;;;-7.91;100.00;100465.93;1697309;84;21009;-71
2022/01/25 03:10:00;;;;;;;18.30;7.50;;;;;;;-7.94;100.00;100466.86;1696977;84;21041;-70
2022/01/25 03:12:43;;;;;;;18.83;8.23;;;;;;;-7.95;100.00;100463.84;1697259;84;21566;-71
2022/01/25 03:15:26;;;;;;;20.50;8.13;;;;;;;-7.95;100.00;100470.84;1671764;85;21033;-70
2022/01/25 03:17:47;;;;;;;20.63;8.50;;;;;;;-7.93;100.00;100471.65;1672219;84;21505;-71
2022/01/25 03:20:18;;;;;;;19.43;8.33;;;;;;;-7.93;100.00;100468.59;1693166;84;21010;-71
2022/01/25 03:25:22;;;;;;;18.37;7.90;;;;;;;-7.88;100.00;100465.39;1697391;84;21021;-71
2022/01/25 03:27:49;;;;;;;19.27;8.03;;;;;;;-7.90;100.00;100466.32;1693586;84;21066;-71
2022/01/25 03:30:16;;;;;;;19.17;8.30;;;;;;;-7.93;100.00;100469.02;1660361;85;21070;-71
2022/01/25 03:32:43;;;;;;;20.53;9.43;;;;;;;-7.94;100.00;100469.95;1660579;85;21042;-71
2022/01/25 03:35:10;;;;;;;18.90;8.27;;;;;;;-7.93;100.00;100469.02;1679798;85;21034;-70
2022/01/25 03:37:37;;;;;;;18.93;8.17;;;;;;;-7.94;100.00;100469.48;1660488;85;21042;-71
2022/01/25 03:40:06;;;;;;;18.50;7.80;;;;;;;-7.94;100.00;100464.70;1679688;85;21074;-70
2022/01/25 03:42:36;;;;;;;21.60;8.43;;;;;;;-7.95;100.00;100470.84;1660625;85;21519;-70
2022/01/25 03:45:03;;;;;;;19.37;7.73;;;;;;;-7.98;100.00;100471.80;1680041;84;21034;-70
2022/01/25 03:47:44;;;;;;;20.10;8.03;;;;;;;-7.99;100.00;100461.34;1660536;85;21054;-69
2022/01/25 03:50:00;;;;;;;18.30;7.63;;;;;;;-8.00;100.00;100456.55;1677928;84;21038;-69
2022/01/25 03:52:32;;;;;;;19.80;7.90;;;;;;;-7.98;100.00;100459.98;1660692;85;21523;-70
2022/01/25 03:54:56;;;;;;;23.30;9.93;;;;;;;-7.99;100.00;100458.25;1660744;85;21515;-71
2022/01/25 03:57:22;;;;;;;18.43;7.70;;;;;;;-7.95;100.00;100466.91;1660607;85;21523;-70
2022/01/25 03:59:50;;;;;;;20.80;7.77;;;;;;;-7.93;100.00;100471.22;1679889;85;21042;-70
2022/01/25 04:02:17;;;;;;;18.93;7.40;;;;;;;-7.96;100.00;100467.83;1679883;85;21038;-72
2022/01/25 04:04:45;;;;;;;18.03;7.60;;;;;;;-7.98;100.00;100472.23;1680146;85;20994;-71
2022/01/25 04:07:18;;;;;;;19.10;7.73;;;;;;;-8.02;100.00;100468.83;1660810;85;21070;-72
2022/01/25 04:09:44;;;;;;;18.33;7.37;;;;;;;-8.03;100.00;100473.69;1679770;85;21042;-70
2022/01/25 04:12:13;;;;;;;16.13;6.70;;;;;;;-8.05;100.00;100476.35;1679698;85;21558;-71
2022/01/25 04:14:42;;;;;;;19.20;7.23;;;;;;;-8.06;100.00;100481.17;1680030;84;21046;-71
2022/01/25 04:17:13;;;;;;;18.90;7.83;;;;;;;-8.07;100.00;100487.34;1679742;85;21086;-70
2022/01/25 04:19:44;;;;;;;16.47;7.00;;;;;;;-8.09;100.00;100486.53;1660633;85;21034;-70
2022/01/25 04:25:02;;;;;;;26.93;10.27;;;;;;;-8.11;100.00;100487.46;1680103;85;21061;-69
2022/01/25 04:27:13;;;;;;;45.73;18.43;;;;;;;-8.09;100.00;100486.53;1608082;89;21506;-71
2022/01/25 04:29:40;;;;;;;25.73;10.50;;;;;;;-8.07;100.00;100482.09;1601687;89;21141;-71
2022/01/25 04:32:10;;;;;;;30.07;15.73;;;;;;;-8.02;100.00;100484.58;1580590;90;21029;-72
2022/01/25 04:34:42;;;;;;;28.63;15.17;;;;;;;-7.99;100.00;100487.59;1601739;90;21137;-73
2022/01/25 04:53:47;;;;;;;18.40;6.60;;;;;;;-8.02;100.00;100488.09;1585020;89;21098;-74
2022/01/25 04:59:01;;;;;;;21.60;8.60;;;;;;;-8.07;100.00;100493.91;1504175;95;21110;-75
2022/01/25 05:01:18;;;;;;;19.23;7.87;;;;;;;-8.04;100.00;100495.58;1482770;95;21422;-75
2022/01/25 05:03:58;;;;;;;21.53;8.50;;;;;;;-7.97;100.00;100482.69;1485641;95;21070;-75
2022/01/25 05:06:21;;;;;;;20.27;8.13;;;;;;;-7.94;100.00;100477.82;1483023;95;21058;-75
2022/01/25 05:08:53;;;;;;;20.27;9.40;;;;;;;-7.95;100.00;100480.91;1485444;95;21771;-74
2022/01/25 05:11:28;;;;;;;21.17;8.13;;;;;;;-7.93;100.00;100476.90;1500622;95;21125;-73
2022/01/25 05:14:10;;;;;;;19.50;8.70;;;;;;;-7.91;100.00;100475.97;1482456;95;21688;-74
2022/01/25 05:18:51;;;;;;;17.20;7.80;;;;;;;-7.94;100.00;100487.86;1478903;94;21128;-74
2022/01/25 05:24:05;;;;;;;17.13;7.70;;;;;;;-7.89;100.00;100482.03;1503436;94;21086;-75
2022/01/25 05:26:32;;;;;;;19.13;8.37;;;;;;;-7.82;100.00;100493.23;1522266;94;21154;-75
2022/01/25 05:29:00;;;;;;;19.43;7.73;;;;;;;-7.80;100.00;100497.98;1534257;89;21092;-75
2022/01/25 05:31:29;;;;;;;20.27;8.67;;;;;;;-7.82;100.00;100496.70;1620285;89;21561;-73
2022/01/25 05:33:56;;;;;;;19.17;9.00;;;;;;;-7.82;100.00;100492.77;1620789;89;21065;-74
2022/01/25 05:36:25;;;;;;;42.27;18.70;;;;;;;-7.80;100.00;100487.94;1620435;87;21064;-78
2022/01/25 05:38:55;;;;;;;137.53;66.73;;;;;;;-7.76;100.00;100493.03;1657506;84;20997;-74
2022/01/25 05:41:21;;;;;;;27.43;13.10;;;;;;;-7.72;100.00;100484.19;1655588;85;21046;-75
2022/01/25 05:46:43;;;;;;;26.83;14.40;;;;;;;-7.68;100.00;100474.45;1678779;84;21042;-75
2022/01/25 05:49:03;;;;;;;18.47;7.93;;;;;;;-7.67;100.00;100480.95;1700219;84;21047;-75
2022/01/25 05:51:30;;;;;;;20.80;8.40;;;;;;;-7.67;100.00;100482.27;1677753;85;21062;-75
2022/01/25 05:53:57;;;;;;;19.80;9.07;;;;;;;-7.67;100.00;100479.63;1703756;84;21493;-75
2022/01/25 05:56:24;;;;;;;27.67;16.50;;;;;;;-7.67;100.00;100482.27;1686054;84;21012;-74
2022/01/25 05:58:51;;;;;;;28.57;18.27;;;;;;;-7.66;100.00;100484.00;1706366;84;20985;-76
2022/01/25 06:01:19;;;;;;;23.07;11.83;;;;;;;-7.63;100.00;100489.62;1706666;83;21103;-75
2022/01/25 06:03:46;;;;;;;25.63;11.43;;;;;;;-7.59;100.00;100490.39;1697752;84;21076;-74
2022/01/25 06:06:14;;;;;;;58.60;26.30;;;;;;;-7.57;100.00;100492.06;1655062;85;21543;-74
2022/01/25 06:08:47;;;;;;;30.23;13.50;;;;;;;-7.54;100.00;100488.03;1697723;84;21002;-75
2022/01/25 06:11:14;;;;;;;29.37;13.47;;;;;;;-7.50;100.00;100480.46;1673806;84;21121;-74
2022/01/25 06:13:41;;;;;;;45.67;26.83;;;;;;;-7.48;100.00;100485.67;1698840;84;21035;-75
2022/01/25 06:16:08;;;;;;;39.57;27.10;;;;;;;-7.47;100.00;100485.63;1686113;84;21060;-77
2022/01/25 06:18:35;;;;;;;38.73;24.47;;;;;;;-7.41;100.00;100485.89;1695958;84;21017;-75
2022/01/25 06:21:02;;;;;;;31.93;18.97;;;;;;;-7.37;100.00;100484.89;1703471;84;21140;-76
2022/01/25 06:23:37;;;;;;;34.20;18.13;;;;;;;-7.35;100.00;100488.32;1703438;83;21017;-75
2022/01/25 06:26:04;;;;;;;26.83;13.00;;;;;;;-7.31;100.00;100487.77;1703475;84;21088;-76
2022/01/25 06:28:39;;;;;;;26.30;13.47;;;;;;;-7.30;100.00;100486.42;1704376;83;21587;-75
2022/01/25 06:31:07;;;;;;;29.63;16.60;;;;;;;-7.31;100.00;100491.72;1682572;84;21039;-79
2022/01/25 06:33:34;;;;;;;26.20;13.80;;;;;;;-7.29;100.00;100485.98;1682606;84;21055;-77
2022/01/25 06:36:01;;;;;;;30.03;15.50;;;;;;;-7.27;100.00;100487.64;1710536;84;21535;-76
2022/01/25 06:38:28;;;;;;;33.23;20.00;;;;;;;-7.23;100.00;100490.19;1683012;84;21020;-76
2022/01/25 06:40:55;;;;;;;25.93;13.93;;;;;;;-7.20;100.00;100483.53;1710444;84;21048;-77
2022/01/25 06:43:23;;;;;;;33.43;22.40;;;;;;;-7.18;100.00;100489.59;1710709;84;21077;-76
2022/01/25 06:45:56;;;;;;;31.80;20.47;;;;;;;-7.13;100.00;100489.00;1710836;84;20980;-76
2022/01/25 06:48:19;;;;;;;34.10;22.97;;;;;;;-7.09;100.00;100490.61;1696645;83;21552;-76
2022/01/25 06:50:46;;;;;;;29.23;17.30;;;;;;;-7.04;100.00;100491.80;1687958;85;21033;-75
2022/01/25 06:53:16;;;;;;;26.77;14.53;;;;;;;-7.01;100.00;100488.61;1692304;85;21034;-77
2022/01/25 06:55:43;;;;;;;25.90;13.70;;;;;;;-6.99;100.00;100490.73;1695880;84;21000;-76
2022/01/25 06:58:10;;;;;;;27.77;16.13;;;;;;;-6.97;100.00;100482.34;1682804;84;21051;-75
2022/01/25 07:00:39;;;;;;;25.23;13.00;;;;;;;-6.96;100.00;100493.70;1710644;84;21063;-76
2022/01/25 07:03:07;;;;;;;24.93;12.47;;;;;;;-6.96;100.00;100498.50;1710378;84;21075;-76
2022/01/25 07:05:35;;;;;;;24.60;13.67;;;;;;;-6.92;100.00;100502.77;1687158;84;21067;-76
2022/01/25 07:08:06;;;;;;;33.17;19.73;;;;;;;-6.92;100.00;100496.66;1681698;84;21004;-77
2022/01/25 07:10:34;;;;;;;23.27;12.47;;;;;;;-6.93;100.00;100502.36;1711907;84;21004;-77
2022/01/25 07:13:01;;;;;;;24.57;13.07;;;;;;;-6.92;100.00;100497.98;1710828;82;21056;-76
2022/01/25 07:15:31;;;;;;;25.40;13.20;;;;;;;-6.92;100.00;100505.88;1710721;83;21040;-77
2022/01/25 07:17:58;;;;;;;27.67;15.80;;;;;;;-6.91;100.00;100507.57;1700536;84;21524;-76
2022/01/25 07:20:25;;;;;;;23.43;12.93;;;;;;;-6.89;100.00;100503.12;1705111;83;21092;-77
2022/01/25 07:22:52;;;;;;;28.80;12.53;;;;;;;-6.88;100.00;100499.13;1681965;84;21040;-69
2022/01/25 07:25:21;;;;;;;41.30;24.53;;;;;;;-6.91;100.00;100499.22;1709439;84;21097;-75
2022/01/25 07:27:49;;;;;;;27.20;13.60;;;;;;;-6.90;100.00;100497.01;1710181;84;21086;-74
2022/01/25 07:30:16;;;;;;;26.03;14.23;;;;;;;-6.84;100.00;100496.41;1685279;84;21008;-73
2022/01/25 07:32:44;;;;;;;29.10;15.63;;;;;;;-6.78;100.00;100502.77;1707982;84;21016;-76
2022/01/25 07:35:11;;;;;;;29.00;17.40;;;;;;;-6.72;100.00;100501.27;1708575;83;21080;-76
2022/01/25 07:37:39;;;;;;;47.00;22.87;;;;;;;-6.70;100.00;100494.19;1707812;84;21047;-75
2022/01/25 07:40:10;;;;;;;54.37;31.57;;;;;;;-6.65;100.00;100498.84;1700643;83;21100;-75
2022/01/25 07:42:39;;;;;;;38.33;19.50;;;;;;;-6.62;100.00;100502.69;1700599;84;21592;-76
2022/01/25 07:45:10;;;;;;;51.77;28.40;;;;;;;-6.57;100.00;100509.09;1699848;83;21088;-76
2022/01/25 07:47:38;;;;;;;50.13;27.90;;;;;;;-6.51;100.00;100500.55;1700754;83;21052;-77
2022/01/25 07:50:07;;;;;;;90.83;51.47;;;;;;;-6.47;100.00;100492.09;1705464;83;21525;-79
2022/01/25 07:52:34;;;;;;;63.37;40.40;;;;;;;-6.48;100.00;100499.58;1669142;84;21059;-77
2022/01/25 07:55:01;;;;;;;51.90;32.50;;;;;;;-6.45;100.00;100507.38;1695056;84;21036;-77
2022/01/25 07:57:28;;;;;;;31.87;20.00;;;;;;;-6.41;100.00;100505.06;1700149;83;21024;-77
2022/01/25 07:59:55;;;;;;;36.07;16.47;;;;;;;-6.40;100.00;100507.23;1664162;85;21021;-77
2022/01/25 08:02:22;;;;;;;56.50;28.73;;;;;;;-6.42;100.00;100515.17;1693176;84;21549;-76
2022/01/25 08:04:49;;;;;;;37.97;17.77;;;;;;;-6.44;100.00;100510.89;1667258;85;21032;-77
2022/01/25 08:07:17;;;;;;;27.47;13.90;;;;;;;-6.45;100.00;100515.27;1669196;84;21071;-76
2022/01/25 08:09:44;;;;;;;33.70;19.37;;;;;;;-6.42;100.00;100523.53;1701077;84;21001;-76
2022/01/25 08:12:12;;;;;;;22.33;10.70;;;;;;;-6.38;100.00;100518.09;1686151;85;22197;-77
2022/01/25 08:14:42;;;;;;;20.27;8.47;;;;;;;-6.34;100.00;100516.22;1690405;85;21561;-77
2022/01/25 08:17:09;;;;;;;20.07;9.53;;;;;;;-6.40;100.00;100530.45;1643968;86;21130;-76
2022/01/25 08:19:37;;;;;;;24.80;10.43;;;;;;;-6.46;100.00;100537.25;1704639;83;21012;-77
2022/01/25 08:22:06;;;;;;;23.43;10.13;;;;;;;-6.50;100.00;100536.48;1692917;84;21066;-78
2022/01/25 08:24:34;;;;;;;33.10;13.97;;;;;;;-6.55;100.00;100535.78;1709163;83;21060;-76
2022/01/25 08:27:01;;;;;;;31.27;12.93;;;;;;;-6.53;100.00;100539.68;1699752;83;21059;-77
2022/01/25 08:29:28;;;;;;;28.67;11.53;;;;;;;-6.49;100.00;100541.28;1696107;84;21383;-75
2022/01/25 08:31:55;;;;;;;36.97;16.00;;;;;;;-6.50;100.00;100542.19;1700015;83;21521;-77
2022/01/25 08:34:24;;;;;;;26.43;13.00;;;;;;;-6.41;100.00;100541.91;1704522;83;21140;-76
2022/01/25 08:36:51;;;;;;;35.27;20.27;;;;;;;-6.30;100.00;100537.59;1701507;84;21032;-76
2022/01/25 08:39:18;;;;;;;48.33;24.07;;;;;;;-6.19;100.00;100535.45;1695660;84;21020;-76
2022/01/25 08:41:45;;;;;;;36.73;18.10;;;;;;;-6.05;100.00;100527.54;1684326;84;20983;-76
2022/01/25 08:44:16;;;;;;;40.30;20.47;;;;;;;-5.96;100.00;100522.80;1697084;84;21045;-77
2022/01/25 08:46:45;;;;;;;53.90;27.67;;;;;;;-5.88;100.00;100519.84;1689719;83;21056;-76
2022/01/25 08:49:12;;;;;;;19.57;9.40;;;;;;;-5.79;100.00;100522.17;1702875;83;20984;-76
2022/01/25 08:51:39;;;;;;;17.30;8.23;;;;;;;-5.70;100.00;100524.05;1670870;84;21156;-76
2022/01/25 08:54:06;;;;;;;18.33;8.20;;;;;;;-5.75;100.00;100522.45;1693822;84;21068;-77
2022/01/25 08:56:33;;;;;;;21.13;9.37;;;;;;;-5.78;100.00;100528.29;1686482;84;21107;-75
2022/01/25 08:59:00;;;;;;;20.17;9.33;;;;;;;-5.82;100.00;100539.39;1686421;84;21018;-76
2022/01/25 09:01:28;;;;;;;22.80;10.03;;;;;;;-5.88;100.00;100538.28;1666665;85;21013;-75
2022/01/25 09:03:56;;;;;;;24.37;12.50;;;;;;;-6.00;100.00;100551.47;1666443;83;20989;-72
2022/01/25 09:06:24;;;;;;;35.83;16.60;;;;;;;-6.03;100.00;100552.04;1689590;84;21080;-75
2022/01/25 09:08:54;;;;;;;23.20;11.07;;;;;;;-5.94;100.00;100555.16;1699540;83;21005;-76
2022/01/25 09:11:20;;;;;;;23.63;10.00;;;;;;;-5.83;100.00;100549.98;1669373;85;21060;-78
2022/01/25 09:13:49;;;;;;;21.90;10.97;;;;;;;-5.82;100.00;100553.88;1703655;84;21017;-76
2022/01/25 09:16:16;;;;;;;22.57;10.43;;;;;;;-5.84;100.00;100563.62;1686140;84;21151;-78
2022/01/25 09:18:48;;;;;;;25.80;10.70;;;;;;;-5.81;100.00;100562.63;1693186;82;21064;-76
2022/01/25 09:21:16;;;;;;;20.40;10.23;;;;;;;-5.82;100.00;100561.78;1707735;83;21560;-75
2022/01/25 09:23:44;;;;;;;19.10;8.70;;;;;;;-5.78;100.00;100553.31;1669666;84;21011;-71
2022/01/25 09:26:11;;;;;;;36.00;16.80;;;;;;;-5.72;100.00;100559.23;1694782;84;21076;-74
2022/01/25 09:28:38;;;;;;;24.60;11.90;;;;;;;-5.68;100.00;100556.46;1685066;84;21076;-76
2022/01/25 09:31:11;;;;;;;26.80;13.27;;;;;;;-5.64;100.00;100554.14;1681854;84;21092;-73
2022/01/25 09:33:38;;;;;;;56.63;35.27;;;;;;;-5.57;100.00;100559.13;1685160;84;21102;-73
2022/01/25 09:36:05;;;;;;;46.20;27.60;;;;;;;-5.44;100.00;100550.77;1662405;84;21025;-75
2022/01/25 09:38:32;;;;;;;95.60;45.63;;;;;;;-5.40;100.00;100545.34;1687985;84;21043;-77
2022/01/25 09:40:59;;;;;;;105.00;58.23;;;;;;;-5.38;100.00;100551.88;1678386;85;21056;-77
2022/01/25 09:43:27;;;;;;;105.90;53.40;;;;;;;-5.37;100.00;100542.56;1700808;83;21033;-76
2022/01/25 09:45:55;;;;;;;90.10;46.13;;;;;;;-5.31;100.00;100545.89;1682800;85;21039;-76
2022/01/25 09:48:22;;;;;;;55.47;29.63;;;;;;;-5.28;100.00;100537.88;1689403;84;21051;-76
2022/01/25 09:50:49;;;;;;;34.40;16.50;;;;;;;-5.21;100.00;100543.31;1673701;84;21036;-75
2022/01/25 09:53:16;;;;;;;28.40;14.43;;;;;;;-5.12;100.00;100539.47;1694097;84;21061;-75
2022/01/25 09:55:44;;;;;;;175.23;103.83;;;;;;;-5.04;100.00;100531.66;1709187;83;21017;-77
2022/01/25 09:58:13;;;;;;;128.37;76.57;;;;;;;-5.03;100.00;100538.66;1691629;84;21091;-75
2022/01/25 10:00:45;;;;;;;166.33;109.67;;;;;;;-5.06;100.00;100543.20;1672239;84;21046;-74
2022/01/25 10:03:20;;;;;;;115.73;61.73;;;;;;;-5.07;100.00;100543.64;1686849;84;21016;-76
2022/01/25 10:05:46;;;;;;;133.23;69.63;;;;;;;-5.05;100.00;100543.58;1696556;84;21044;-81
2022/01/25 10:08:21;;;;;;;172.00;100.27;;;;;;;-5.04;100.00;100540.89;1683878;84;21669;-77
2022/01/25 10:10:58;;;;;;;92.23;51.00;;;;;;;-5.00;100.00;100537.67;1682840;85;21072;-76
2022/01/25 10:13:31;;;;;;;90.07;57.17;;;;;;;-5.00;100.00;100535.88;1669229;86;21177;-77
2022/01/25 10:16:03;;;;;;;162.83;94.83;;;;;;;-5.00;100.00;100541.16;1662370;85;21038;-77
2022/01/25 10:18:41;;;;;;;115.30;69.20;;;;;;;-5.04;100.00;100536.94;1662933;85;20986;-78
2022/01/25 10:21:21;;;;;;;153.37;84.37;;;;;;;-5.05;100.00;100542.27;1665177;85;21077;-77
2022/01/25 10:24:22;;;;;;;124.23;77.50;;;;;;;-5.03;100.00;100543.05;1661041;86;21069;-77
2022/01/25 10:26:53;;;;;;;150.87;93.37;;;;;;;-5.02;100.00;100542.15;1645712;86;21082;-77
2022/01/25 10:29:25;;;;;;;82.13;52.67;;;;;;;-5.02;100.00;100533.77;1666513;83;21029;-77
2022/01/25 10:31:59;;;;;;;35.75;22.82;;;;;;;-5.01;100.00;100530.23;1658500;85;21048;-75
2022/01/25 10:34:34;;;;;;;78.07;49.33;;;;;;;-5.00;100.00;100529.76;1637518;86;21106;-76
2022/01/25 10:37:21;;;;;;;72.03;45.17;;;;;;;-4.98;100.00;100530.55;1607850;89;21083;-76
2022/01/25 10:39:52;;;;;;;50.03;25.17;;;;;;;-4.94;100.00;100526.02;1582690;89;21094;-75
2022/01/25 10:42:28;;;;;;;55.27;38.83;;;;;;;-4.93;100.00;100531.23;1599777;89;21034;-77
2022/01/25 10:45:08;;;;;;;48.00;29.93;;;;;;;-4.93;100.00;100538.30;1598810;89;21026;-76
2022/01/25 10:47:49;;;;;;;57.20;31.53;;;;;;;-4.92;100.00;100530.77;1565659;91;21109;-77
2022/01/25 10:50:34;;;;;;;41.77;22.53;;;;;;;-4.99;100.00;100524.42;1550587;92;21619;-77
2022/01/25 10:53:10;;;;;;;39.07;21.67;;;;;;;-5.04;100.00;100522.42;1550461;92;21136;-77
2022/01/25 10:55:39;;;;;;;48.07;23.50;;;;;;;-5.09;100.00;100520.89;1529913;92;21803;-77
2022/01/25 10:58:07;;;;;;;29.10;15.87;;;;;;;-5.11;100.00;100513.04;1531271;92;21040;-73
2022/01/25 11:00:40;;;;;;;46.63;23.93;;;;;;;-5.11;100.00;100514.36;1557590;91;21111;-76
2022/01/25 11:03:07;;;;;;;22.98;10.90;;;;;;;-5.12;100.00;100515.27;1577398;91;21220;-75
2022/01/25 11:05:37;;;;;;;34.63;22.33;;;;;;;-5.12;100.00;100510.45;1591295;90;21114;-76
2022/01/25 11:08:13;;;;;;;37.33;23.50;;;;;;;-5.22;100.00;100507.34;1591392;90;21094;-74
2022/01/25 11:10:54;;;;;;;35.60;22.97;;;;;;;-5.23;100.00;100505.60;1508630;95;21140;-73
2022/01/25 11:15:57;;;;;;;21.80;10.17;;;;;;;-5.15;100.00;100494.31;1532141;94;21130;-79
2022/01/25 11:18:25;;;;;;;20.70;10.47;;;;;;;-5.16;100.00;100497.38;1531239;92;21030;-79
2022/01/25 11:20:58;;;;;;;55.17;29.73;;;;;;;-5.15;100.00;100496.48;1557452;92;21129;-75
2022/01/25 11:23:25;;;;;;;126.50;78.87;;;;;;;-5.14;100.00;100499.97;1555730;91;21562;-76
2022/01/25 11:25:56;;;;;;;62.97;37.97;;;;;;;-5.17;100.00;100489.09;1546376;92;21151;-75
2022/01/25 11:28:23;;;;;;;34.57;21.27;;;;;;;-5.17;100.00;100488.21;1507985;95;21087;-75
2022/01/25 11:30:50;;;;;;;32.00;18.97;;;;;;;-5.16;100.00;100484.20;1541514;93;21068;-75
2022/01/25 11:33:17;;;;;;;21.07;11.73;;;;;;;-5.12;100.00;100484.94;1564828;91;21109;-77
2022/01/25 11:35:44;;;;;;;34.70;19.43;;;;;;;-5.07;100.00;100475.07;1577743;90;21172;-77
2022/01/25 11:38:13;;;;;;;22.17;11.43;;;;;;;-5.02;100.00;100473.11;1619993;87;21136;-74
2022/01/25 11:40:46;;;;;;;34.27;19.97;;;;;;;-5.00;100.00;100473.91;1636817;87;21024;-76
2022/01/25 11:43:15;;;;;;;50.47;29.23;;;;;;;-5.00;100.00;100473.05;1633608;86;21095;-75
2022/01/25 11:45:50;;;;;;;39.23;22.43;;;;;;;-4.98;100.00;100484.39;1612202;88;21112;-77
2022/01/25 11:48:24;;;;;;;35.63;19.20;;;;;;;-5.00;100.00;100487.56;1583684;89;21148;-74
2022/01/25 11:50:51;;;;;;;37.33;26.00;;;;;;;-4.96;100.00;100490.02;1578117;91;21100;-75
2022/01/25 11:53:19;;;;;;;33.47;21.67;;;;;;;-4.94;100.00;100485.98;1559588;91;21080;-75
2022/01/25 11:55:55;;;;;;;27.97;14.83;;;;;;;-4.94;100.00;100479.86;1581038;91;21096;-74
2022/01/25 11:58:33;;;;;;;34.97;20.50;;;;;;;-4.95;100.00;100481.64;1577537;90;21044;-76
2022/01/25 12:01:03;;;;;;;40.50;23.57;;;;;;;-4.98;100.00;100479.97;1584668;89;21111;-75
2022/01/25 12:03:40;;;;;;;54.63;36.17;;;;;;;-4.99;100.00;100478.27;1581819;90;21138;-75
2022/01/25 12:06:21;;;;;;;65.47;43.77;;;;;;;-5.02;100.00;100482.34;1585037;90;21567;-75
2022/01/25 12:09:16;;;;;;;39.67;22.47;;;;;;;-5.04;100.00;100480.70;1558777;90;21082;-74
2022/01/25 12:11:58;;;;;;;31.83;17.70;;;;;;;-5.06;100.00;100475.95;1582424;90;21096;-75
2022/01/25 12:14:39;;;;;;;33.70;21.33;;;;;;;-5.07;100.00;100473.75;1574721;90;21071;-74
2022/01/25 12:17:16;;;;;;;47.83;30.77;;;;;;;-5.06;100.00;100468.89;1540455;91;21090;-74
2022/01/25 12:19:58;;;;;;;56.97;38.60;;;;;;;-5.07;100.00;100470.27;1584059;89;21097;-75
2022/01/25 12:22:40;;;;;;;42.07;24.00;;;;;;;-5.09;100.00;100468.16;1569944;90;21082;-74
2022/01/25 12:25:38;;;;;;;33.50;18.07;;;;;;;-5.10;100.00;100471.23;1546104;93;21594;-75
2022/01/25 12:28:09;;;;;;;30.90;15.90;;;;;;;-5.11;100.00;100467.36;1552263;90;21019;-75
2022/01/25 12:30:42;;;;;;;28.80;13.90;;;;;;;-5.09;100.00;100467.69;1582205;88;21697;-76
2022/01/25 12:33:34;;;;;;;69.17;44.17;;;;;;;-5.09;100.00;100469.00;1613974;88;21113;-75
2022/01/25 12:36:07;;;;;;;37.63;19.83;;;;;;;-5.12;100.00;100470.91;1622433;87;21579;-75
2022/01/25 12:38:49;;;;;;;31.73;17.20;;;;;;;-5.17;100.00;100464.48;1605028;88;21111;-76
2022/01/25 12:41:24;;;;;;;27.50;14.40;;;;;;;-5.16;100.00;100465.74;1583920;91;21049;-76
2022/01/25 12:43:54;;;;;;;24.70;12.40;;;;;;;-5.18;100.00;100459.67;1598381;87;21052;-76
2022/01/25 12:46:28;;;;;;;27.77;12.63;;;;;;;-5.22;100.00;100460.73;1647541;87;21038;-76
2022/01/25 12:49:04;;;;;;;31.13;14.10;;;;;;;-5.26;100.00;100458.26;1586892;89;21054;-76
2022/01/25 12:51:34;;;;;;;27.97;14.57;;;;;;;-5.25;100.00;100459.99;1612241;89;21528;-74